createdAt,value
2017-10-18T00:00:12.577Z,34.13
2017-10-18T00:03:14.057Z,35.67
2017-10-18T00:06:15.494Z,35.40
2017-10-18T00:09:16.945Z,45.03
2017-10-18T00:12:18.360Z,32.53
2017-10-18T00:15:20.556Z,27.60
2017-10-18T00:18:21.984Z,32.53
2017-10-18T00:21:24.175Z,27.07
2017-10-18T00:24:25.644Z,36.67
2017-10-18T00:27:27.059Z,27.63
2017-10-18T00:30:29.259Z,28.60
2017-10-18T00:33:30.736Z,40.73
2017-10-18T00:36:32.944Z,31.67
2017-10-18T00:39:35.148Z,48.33
2017-10-18T00:42:36.623Z,24.60
2017-10-18T00:45:38.840Z,27.97
2017-10-18T00:48:40.346Z,26.13
2017-10-18T00:51:41.857Z,29.10
2017-10-18T00:54:44.100Z,29.67
2017-10-18T00:57:45.537Z,34.53
2017-10-18T01:00:46.988Z,33.93
2017-10-18T01:03:48.431Z,42.53
2017-10-18T01:06:49.868Z,40.43
2017-10-18T01:09:51.327Z,41.20
2017-10-18T01:12:52.753Z,37.27
2017-10-18T01:15:54.191Z,36.10
2017-10-18T01:18:56.374Z,38.77
2017-10-18T01:21:58.520Z,42.10
2017-10-18T01:24:59.982Z,27.60
2017-10-18T01:28:01.446Z,26.80
2017-10-18T01:31:03.738Z,31.00
2017-10-18T01:34:05.163Z,30.13
2017-10-18T01:37:07.326Z,39.43
2017-10-18T01:40:08.749Z,39.93
2017-10-18T01:43:10.207Z,35.63
2017-10-18T01:46:11.647Z,44.77
2017-10-18T01:49:13.182Z,27.47
2017-10-18T01:52:14.591Z,27.50
2017-10-18T01:55:16.008Z,37.93
2017-10-18T01:58:17.481Z,33.77
2017-10-18T02:01:18.939Z,26.03
2017-10-18T02:04:21.095Z,34.33
2017-10-18T02:07:22.672Z,31.23
2017-10-18T02:10:24.084Z,29.43
2017-10-18T02:13:25.554Z,35.77
2017-10-18T02:16:26.980Z,28.70
2017-10-18T02:19:28.425Z,27.67
2017-10-18T02:22:29.835Z,27.10
2017-10-18T02:25:32.037Z,24.07
2017-10-18T02:28:33.527Z,34.37
2017-10-18T02:31:34.963Z,36.90
2017-10-18T02:34:36.416Z,25.20
2017-10-18T02:37:37.839Z,35.17
2017-10-18T02:40:39.320Z,30.53
2017-10-18T02:43:40.783Z,31.73
2017-10-18T02:46:42.264Z,35.83
2017-10-18T02:49:43.773Z,32.43
2017-10-18T02:52:45.239Z,23.70
2017-10-18T02:55:46.735Z,29.83
2017-10-18T02:58:48.902Z,28.33
2017-10-18T03:01:51.078Z,27.27
2017-10-18T03:04:53.212Z,22.93
2017-10-18T03:07:54.689Z,27.57
2017-10-18T03:10:56.880Z,26.47
2017-10-18T03:13:59.074Z,29.07
2017-10-18T03:17:00.597Z,28.70
2017-10-18T03:20:02.880Z,37.10
2017-10-18T03:23:04.416Z,28.87
2017-10-18T03:26:05.901Z,34.13
2017-10-18T03:29:07.457Z,36.03
2017-10-18T03:32:08.939Z,20.07
2017-10-18T03:35:10.413Z,28.57
2017-10-18T03:38:11.939Z,32.77
2017-10-18T03:41:13.364Z,26.00
2017-10-18T03:44:14.916Z,26.17
2017-10-18T03:47:16.379Z,32.03
2017-10-18T03:50:17.872Z,28.30
2017-10-18T03:53:19.346Z,24.43
2017-10-18T03:56:20.788Z,24.17
2017-10-18T03:59:22.275Z,31.20
2017-10-18T04:02:24.403Z,30.37
2017-10-18T04:05:25.867Z,36.10
2017-10-18T04:08:27.319Z,28.13
2017-10-18T04:11:28.762Z,24.80
2017-10-18T04:14:30.181Z,33.97
2017-10-18T04:17:31.635Z,32.20
2017-10-18T04:20:33.089Z,32.73
2017-10-18T04:23:34.551Z,25.10
2017-10-18T04:26:36.796Z,29.33
2017-10-18T04:29:38.279Z,36.77
2017-10-18T04:32:39.784Z,30.30
2017-10-18T04:35:41.269Z,32.93
2017-10-18T04:38:42.772Z,27.90
2017-10-18T04:41:44.181Z,41.33
2017-10-18T04:44:45.683Z,39.63
2017-10-18T04:47:47.925Z,24.97
2017-10-18T04:50:49.358Z,28.00
2017-10-18T04:53:50.822Z,30.20
2017-10-18T04:56:52.253Z,34.20
2017-10-18T04:59:53.692Z,33.90
2017-10-18T05:02:55.157Z,28.80
2017-10-18T05:05:56.603Z,37.87
2017-10-18T05:08:58.126Z,31.67
2017-10-18T05:12:00.410Z,39.63
2017-10-18T05:15:01.933Z,34.10
2017-10-18T05:18:03.407Z,35.97
2017-10-18T05:21:05.631Z,40.73
2017-10-18T05:24:07.117Z,45.37
2017-10-18T05:27:09.387Z,32.00
2017-10-18T05:30:11.618Z,32.70
2017-10-18T05:33:13.080Z,31.93
2017-10-18T05:36:14.583Z,37.77
2017-10-18T05:39:16.123Z,31.03
2017-10-18T05:42:18.321Z,39.37
2017-10-18T05:45:19.839Z,34.33
2017-10-18T05:48:21.303Z,39.70
2017-10-18T05:51:23.567Z,35.07
2017-10-18T05:54:24.996Z,34.80
2017-10-18T05:57:26.498Z,37.17
2017-10-18T06:00:27.929Z,32.50
2017-10-18T06:03:29.346Z,29.73
2017-10-18T06:06:31.546Z,39.63
2017-10-18T06:09:33.041Z,38.73
2017-10-18T06:12:34.466Z,35.37
2017-10-18T06:15:37.123Z,29.03
2017-10-18T06:18:38.607Z,43.23
2017-10-18T06:21:40.745Z,28.17
2017-10-18T06:24:42.179Z,37.37
2017-10-18T06:27:43.585Z,31.70
2017-10-18T06:30:45.019Z,31.37
2017-10-18T06:33:46.397Z,26.43
2017-10-18T06:36:47.822Z,29.73
2017-10-18T06:39:49.983Z,30.10
2017-10-18T06:42:51.419Z,29.67
2017-10-18T06:45:52.871Z,33.73
2017-10-18T06:48:54.355Z,32.17
2017-10-18T06:51:56.515Z,42.27
2017-10-18T06:54:57.855Z,43.10
2017-10-18T06:57:59.296Z,41.10
2017-10-18T07:01:00.711Z,42.90
2017-10-18T07:04:02.132Z,43.20
2017-10-18T07:07:04.317Z,47.37
2017-10-18T07:10:05.701Z,45.83
2017-10-18T07:13:07.139Z,84.70
2017-10-18T07:16:08.522Z,89.43
2017-10-18T07:19:10.348Z,86.60
2017-10-18T07:22:11.910Z,123.53
2017-10-18T07:25:13.686Z,122.37
2017-10-18T07:28:15.411Z,68.23
2017-10-18T07:31:17.245Z,99.43
2017-10-18T07:34:19.786Z,62.57
2017-10-18T07:37:21.492Z,121.13
2017-10-18T07:40:23.274Z,62.97
2017-10-18T07:43:24.937Z,68.00
2017-10-18T07:46:26.825Z,107.30
2017-10-18T07:49:28.593Z,62.73
2017-10-18T07:52:29.947Z,41.70
2017-10-18T07:55:31.356Z,56.90
2017-10-18T07:58:43.021Z,77.13
2017-10-18T08:19:39.500Z,39.03
2017-10-18T08:22:40.958Z,53.97
2017-10-18T08:25:42.471Z,28.03
2017-10-18T08:28:44.716Z,35.63
2017-10-18T08:31:46.199Z,32.10
2017-10-18T08:34:48.383Z,22.13
2017-10-18T08:37:50.587Z,23.80
2017-10-18T08:40:52.049Z,18.13
2017-10-18T08:43:53.598Z,21.57
2017-10-18T08:46:55.040Z,21.90
2017-10-18T08:49:56.600Z,19.97
2017-10-18T08:52:58.062Z,20.70
2017-10-18T08:55:59.553Z,21.47
2017-10-18T08:59:01.072Z,19.33
2017-10-18T09:02:03.306Z,20.10
2017-10-18T09:05:04.776Z,27.03
2017-10-18T09:08:06.231Z,21.10
2017-10-18T09:11:07.756Z,24.53
2017-10-18T09:14:09.899Z,22.30
2017-10-18T09:17:11.385Z,20.67
2017-10-18T09:20:12.887Z,19.33
2017-10-18T09:23:14.339Z,20.20
2017-10-18T09:26:15.740Z,26.13
2017-10-18T09:29:17.214Z,28.40
2017-10-18T09:32:18.670Z,30.90
2017-10-18T09:35:20.054Z,21.80
2017-10-18T09:38:21.424Z,24.73
2017-10-18T09:41:23.563Z,40.80
2017-10-18T09:44:25.830Z,23.97
2017-10-18T09:47:27.249Z,26.10
2017-10-18T09:50:28.660Z,27.20
2017-10-18T09:53:30.071Z,26.00
2017-10-18T09:56:31.481Z,27.50
2017-10-18T09:59:33.655Z,24.90
2017-10-18T10:02:35.816Z,29.50
2017-10-18T10:05:38.196Z,25.80
2017-10-18T10:08:42.029Z,25.70
2017-10-18T10:11:43.580Z,22.67
2017-10-18T10:14:44.956Z,24.60
2017-10-18T10:17:46.474Z,21.00
2017-10-18T10:20:48.467Z,24.60
2017-10-18T10:23:52.165Z,22.63
2017-10-18T10:26:53.676Z,28.70
2017-10-18T10:29:55.152Z,24.20
2017-10-18T10:32:58.993Z,29.37
2017-10-18T10:36:00.993Z,25.27
2017-10-18T10:39:03.634Z,21.27
2017-10-18T10:42:05.728Z,22.33
2017-10-18T10:45:08.262Z,19.00
2017-10-18T10:48:09.878Z,19.83
2017-10-18T10:51:14.994Z,19.50
2017-10-18T10:54:17.170Z,22.83
2017-10-18T10:57:19.344Z,22.30
2017-10-18T11:00:20.815Z,14.83
2017-10-18T11:03:22.896Z,11.00
2017-10-18T11:06:25.025Z,14.67
2017-10-18T11:09:26.441Z,16.57
2017-10-18T11:12:27.886Z,15.00
2017-10-18T11:15:29.274Z,15.50
2017-10-18T11:18:30.775Z,17.40
2017-10-18T11:21:32.922Z,17.07
2017-10-18T11:24:34.379Z,16.97
2017-10-18T11:27:35.847Z,13.77
2017-10-18T11:30:38.036Z,10.60
2017-10-18T11:33:39.497Z,17.33
2017-10-18T11:36:40.946Z,21.90
2017-10-18T11:39:42.391Z,12.20
2017-10-18T11:42:43.770Z,17.10
2017-10-18T11:45:45.347Z,12.10
2017-10-18T11:48:46.783Z,19.70
2017-10-18T11:51:48.202Z,14.77
2017-10-18T11:54:49.763Z,15.73
2017-10-18T11:57:51.186Z,13.93
2017-10-18T12:00:53.385Z,19.77
2017-10-18T12:03:54.829Z,10.77
2017-10-18T12:06:56.251Z,15.27
2017-10-18T12:09:58.545Z,17.00
2017-10-18T12:13:00.741Z,22.40
2017-10-18T12:16:02.296Z,11.40
2017-10-18T12:19:03.741Z,10.30
2017-10-18T12:22:05.192Z,11.50
2017-10-18T12:25:06.628Z,11.73
2017-10-18T12:28:08.851Z,16.70
2017-10-18T12:31:10.292Z,20.70
2017-10-18T12:34:11.779Z,14.10
2017-10-18T12:37:13.198Z,14.90
2017-10-18T12:40:14.651Z,15.37
2017-10-18T12:43:16.129Z,18.67
2017-10-18T12:46:17.680Z,11.67
2017-10-18T12:49:19.171Z,72.93
2017-10-18T12:52:21.307Z,15.67
2017-10-18T12:55:22.815Z,22.03
2017-10-18T12:58:24.243Z,14.37
2017-10-18T13:01:25.669Z,20.43
2017-10-18T13:04:27.025Z,16.80
2017-10-18T13:07:28.385Z,13.70
2017-10-18T13:10:30.612Z,17.90
2017-10-18T13:13:32.215Z,24.17
2017-10-18T13:16:34.472Z,15.90
2017-10-18T13:19:36.011Z,13.50
2017-10-18T13:22:37.431Z,28.03
2017-10-18T13:25:38.789Z,14.70
2017-10-18T13:28:40.483Z,17.13
2017-10-18T13:31:41.954Z,8.60
2017-10-18T13:34:44.111Z,34.23
2017-10-18T13:37:45.416Z,79.27
2017-10-18T13:40:46.838Z,117.70
2017-10-18T13:43:48.964Z,26.33
2017-10-18T13:46:50.474Z,18.53
2017-10-18T13:49:51.886Z,14.70
2017-10-18T13:52:53.255Z,18.50
2017-10-18T13:55:55.356Z,7.70
2017-10-18T13:58:56.650Z,12.80
2017-10-18T14:01:57.981Z,17.23
2017-10-18T14:04:59.315Z,15.47
2017-10-18T14:08:01.025Z,11.47
2017-10-18T14:11:02.617Z,10.20
2017-10-18T14:14:04.244Z,13.30
2017-10-18T14:17:06.413Z,8.90
2017-10-18T14:20:08.562Z,10.50
2017-10-18T14:23:10.002Z,7.80
2017-10-18T14:26:11.394Z,18.53
2017-10-18T14:29:12.812Z,7.30
2017-10-18T14:32:14.646Z,9.40
2017-10-18T14:35:16.145Z,15.43
2017-10-18T14:38:17.526Z,12.17
2017-10-18T14:41:18.904Z,16.10
2017-10-18T14:44:20.263Z,15.63
2017-10-18T14:47:21.677Z,14.87
2017-10-18T14:50:23.104Z,10.83
2017-10-18T14:53:24.457Z,11.80
2017-10-18T14:56:26.572Z,11.20
2017-10-18T14:59:27.986Z,11.77
2017-10-18T15:02:30.090Z,30.07
2017-10-18T15:05:31.452Z,9.60
2017-10-18T15:08:32.889Z,10.20
2017-10-18T15:11:34.340Z,9.07
2017-10-18T15:14:35.704Z,16.20
2017-10-18T15:17:37.093Z,10.03
2017-10-18T15:20:38.480Z,31.57
2017-10-18T15:23:39.892Z,12.30
2017-10-18T15:26:41.271Z,17.70
2017-10-18T15:29:42.770Z,11.93
2017-10-18T15:32:44.172Z,20.30
2017-10-18T15:35:46.297Z,26.30
2017-10-18T15:38:47.728Z,136.00
2017-10-18T15:41:49.142Z,9.03
2017-10-18T15:44:50.593Z,14.73
2017-10-18T15:47:52.765Z,33.67
2017-10-18T15:50:54.591Z,24.93
2017-10-18T15:53:55.989Z,13.83
2017-10-18T15:56:57.381Z,14.90
2017-10-18T15:59:58.964Z,20.43
2017-10-18T16:03:00.293Z,12.47
2017-10-18T16:06:02.075Z,15.00
2017-10-18T16:09:04.248Z,19.37
2017-10-18T16:12:06.874Z,18.50
2017-10-18T16:15:09.193Z,18.13
2017-10-18T16:18:11.322Z,13.07
2017-10-18T16:21:13.611Z,28.03
2017-10-18T16:24:15.352Z,15.20
2017-10-18T16:27:16.761Z,13.17
2017-10-18T16:30:20.248Z,11.30
2017-10-18T16:33:27.412Z,16.23
2017-10-18T16:36:28.745Z,26.13
2017-10-18T16:39:32.666Z,12.80
2017-10-18T16:42:34.539Z,10.37
2017-10-18T16:45:36.814Z,13.60
2017-10-18T16:48:38.228Z,16.67
2017-10-18T16:51:39.640Z,15.43
2017-10-18T16:54:41.620Z,10.73
2017-10-18T16:57:44.943Z,25.13
2017-10-18T17:00:47.248Z,25.57
2017-10-18T17:03:50.441Z,19.13
2017-10-18T17:06:51.821Z,22.03
2017-10-18T17:09:54.580Z,21.83
2017-10-18T17:12:56.800Z,18.63
2017-10-18T17:15:58.381Z,12.67
2017-10-18T17:18:59.994Z,21.33
2017-10-18T17:22:02.540Z,12.07
2017-10-18T17:25:04.973Z,15.20
2017-10-18T17:28:07.051Z,12.37
2017-10-18T17:31:08.853Z,19.33
2017-10-18T17:34:12.988Z,15.20
2017-10-18T17:37:14.917Z,24.57
2017-10-18T17:40:18.597Z,26.97
2017-10-18T17:43:21.323Z,13.33
2017-10-18T17:46:23.889Z,20.37
2017-10-18T17:49:25.247Z,23.70
2017-10-18T17:52:27.591Z,20.00
2017-10-18T17:55:30.768Z,18.13
2017-10-18T17:58:33.474Z,12.20
2017-10-18T18:01:36.623Z,54.97
2017-10-18T18:04:39.361Z,13.67
2017-10-18T18:07:40.922Z,20.63
2017-10-18T18:10:42.468Z,15.57
2017-10-18T18:13:45.392Z,12.63
2017-10-18T18:16:48.163Z,11.77
2017-10-18T18:19:50.618Z,24.77
2017-10-18T18:22:52.767Z,12.60
2017-10-18T18:25:55.022Z,15.83
2017-10-18T18:28:59.785Z,18.13
2017-10-18T18:32:03.218Z,17.23
2017-10-18T18:35:04.787Z,19.20
2017-10-18T18:38:06.677Z,12.23
2017-10-18T18:41:08.326Z,12.83
2017-10-18T18:44:13.681Z,13.50
2017-10-18T18:47:15.970Z,22.77
2017-10-18T18:50:17.609Z,23.13
2017-10-18T18:53:20.252Z,10.60
2017-10-18T18:56:21.930Z,12.70
2017-10-18T18:59:26.825Z,19.43
2017-10-18T19:02:29.031Z,25.20
2017-10-18T19:05:30.529Z,9.60
2017-10-18T19:08:32.056Z,22.03
2017-10-18T19:11:34.401Z,19.70
2017-10-18T19:14:35.821Z,20.70
2017-10-18T19:17:38.473Z,24.13
2017-10-18T19:20:39.889Z,18.33
2017-10-18T19:23:42.045Z,24.03
2017-10-18T19:26:45.300Z,20.63
2017-10-18T19:29:46.753Z,16.20
2017-10-18T19:32:48.126Z,12.80
2017-10-18T19:35:50.553Z,16.00
2017-10-18T19:38:52.055Z,20.20
2017-10-18T19:41:54.084Z,14.73
2017-10-18T19:44:58.657Z,19.40
2017-10-18T19:48:00.422Z,12.33
2017-10-18T19:51:02.801Z,21.50
2017-10-18T19:54:05.004Z,13.83
2017-10-18T19:57:07.492Z,28.60
2017-10-18T20:00:09.719Z,36.30
2017-10-18T20:03:12.140Z,13.53
2017-10-18T20:06:14.618Z,24.30
2017-10-18T20:09:16.312Z,54.00
2017-10-18T20:12:20.259Z,17.37
2017-10-18T20:15:23.750Z,19.93
2017-10-18T20:18:25.209Z,21.47
2017-10-18T20:21:26.938Z,22.33
2017-10-18T20:24:28.735Z,22.10
2017-10-18T20:27:31.266Z,12.07
2017-10-18T20:30:32.974Z,21.40
2017-10-18T20:33:35.312Z,11.70
2017-10-18T20:39:46.324Z,12.07
2017-10-18T20:42:47.894Z,17.30
2017-10-18T20:45:49.607Z,23.67
2017-10-18T20:48:51.527Z,23.27
2017-10-18T20:51:53.254Z,33.50
2017-10-18T20:54:55.046Z,21.73
2017-10-18T20:57:56.820Z,21.03
2017-10-18T21:00:59.335Z,16.27
2017-10-18T21:04:01.080Z,11.37
2017-10-18T21:07:02.880Z,16.00
2017-10-18T21:10:04.663Z,9.87
2017-10-18T21:13:06.380Z,24.00
2017-10-18T21:16:07.921Z,25.13
2017-10-18T21:19:09.763Z,17.63
2017-10-18T21:22:11.182Z,19.37
2017-10-18T21:25:12.655Z,16.40
2017-10-18T21:28:14.319Z,29.57
2017-10-18T21:31:15.940Z,14.37
2017-10-18T21:34:17.395Z,10.00
2017-10-18T21:37:18.902Z,14.97
2017-10-18T21:40:20.342Z,12.27
2017-10-18T21:43:22.471Z,13.93
2017-10-18T21:46:25.181Z,12.00
2017-10-18T21:49:26.709Z,18.07
2017-10-18T21:52:28.270Z,15.47
2017-10-18T21:55:29.636Z,13.13
2017-10-18T21:58:31.094Z,14.43
2017-10-18T22:01:32.518Z,17.67
2017-10-18T22:04:33.957Z,16.30
2017-10-18T22:07:35.580Z,25.70
2017-10-18T22:10:37.012Z,13.57
2017-10-18T22:13:38.474Z,23.30
2017-10-18T22:16:39.948Z,12.43
2017-10-18T22:19:41.373Z,15.33
2017-10-18T22:22:42.813Z,14.40
2017-10-18T22:25:44.260Z,19.67
2017-10-18T22:28:45.686Z,23.80
2017-10-18T22:31:47.127Z,17.47
2017-10-18T22:34:49.334Z,17.70
2017-10-18T22:37:50.714Z,15.00
2017-10-18T22:40:52.198Z,14.10
2017-10-18T22:43:54.369Z,23.80
2017-10-18T22:46:56.648Z,16.23
2017-10-18T22:49:59.118Z,21.17
2017-10-18T22:53:00.876Z,15.43
2017-10-18T22:56:03.124Z,16.07
2017-10-18T22:59:05.365Z,14.10
2017-10-18T23:02:07.074Z,23.13
2017-10-18T23:05:09.409Z,14.07
2017-10-18T23:08:11.745Z,15.10
2017-10-18T23:11:13.238Z,28.23
2017-10-18T23:14:14.750Z,18.50
2017-10-18T23:17:16.203Z,15.80
2017-10-18T23:20:17.882Z,23.43
2017-10-18T23:23:19.518Z,13.40
2017-10-18T23:26:21.952Z,14.50
2017-10-18T23:29:23.462Z,17.03
2017-10-18T23:32:25.024Z,14.93
2017-10-18T23:35:26.828Z,25.60
2017-10-18T23:38:28.323Z,11.63
2017-10-18T23:41:29.793Z,15.73
2017-10-18T23:44:31.300Z,12.70
2017-10-18T23:47:32.903Z,13.33
2017-10-18T23:50:34.444Z,15.40
2017-10-18T23:53:35.865Z,19.40
2017-10-18T23:56:37.377Z,15.93
2017-10-18T23:59:39.522Z,27.23
